Station Historical Data
Daily Summary for March 14, 2012 Units:  English    Metric   Both
« Previous Day
Next Day »
Daily Weekly Monthly Yearly Custom
  High: Low: Average:
Temperature: 80.6 °F 56.2 °F 67 °F
Dew Point: 66.6 °F 54.8 °F 60.7 °F
Humidity: 95% 53% 81%
Wind Speed: 10.0mph 0.0mph 2.9mph
Wind Gust: 16.0mph - -
Wind- - SSE
Pressure: 30.22 in 30.09 in -
Precipitation: 0.04 in    
Historical Graphs
 
 
Tabular Data for March 14, 2012
Time Temperature Dew Point Pressure Wind Wind Speed Wind Gust Humidity Rainfall Rate (Hourly) Conditions
00:00 63.9 °F 57.6 °F 30.14 in SSE 2.0 mph 3.0 mph 80% 0.00 in
00:05 64.0 °F 57.7 °F 30.14 in South 2.0 mph 3.0 mph 80% 0.00 in
00:10 63.8 °F 57.5 °F 30.14 in SSE 2.0 mph 3.0 mph 80% 0.00 in
00:16 63.5 °F 57.6 °F 30.14 in SSE 2.0 mph 4.0 mph 81% 0.00 in
00:20 63.5 °F 57.9 °F 30.14 in SSE 2.0 mph 3.0 mph 82% 0.00 in
00:26 63.4 °F 57.8 °F 30.14 in SSE 1.0 mph 2.0 mph 82% 0.00 in
00:31 63.0 °F 57.4 °F 30.14 in SSE 1.0 mph 2.0 mph 82% 0.00 in
00:36 62.7 °F 57.5 °F 30.14 in SSE 2.0 mph 2.0 mph 83% 0.00 in
00:41 62.8 °F 57.9 °F 30.14 in South 2.0 mph 2.0 mph 84% 0.00 in
00:46 63.0 °F 58.1 °F 30.14 in SSE 2.0 mph 2.0 mph 84% 0.00 in
00:51 63.0 °F 58.1 °F 30.14 in South 2.0 mph 3.0 mph 84% 0.00 in
00:56 62.8 °F 57.9 °F 30.14 in SSE 2.0 mph 3.0 mph 84% 0.00 in
01:01 62.6 °F 57.7 °F 30.14 in SE 1.0 mph 2.0 mph 84% 0.00 in
01:06 62.2 °F 57.6 °F 30.14 in ESE 1.0 mph 2.0 mph 85% 0.00 in
01:11 61.6 °F 57.0 °F 30.14 in ESE 2.0 mph 3.0 mph 85% 0.00 in
01:16 61.0 °F 56.8 °F 30.14 in SE 1.0 mph 2.0 mph 86% 0.00 in
01:21 60.8 °F 56.9 °F 30.14 in ESE 2.0 mph 2.0 mph 87% 0.00 in
01:26 60.8 °F 56.9 °F 30.14 in Calm   2.0 mph 87% 0.00 in
01:31 60.7 °F 57.1 °F 30.14 in Calm   2.0 mph 88% 0.00 in
01:36 60.7 °F 57.1 °F 30.14 in Calm   2.0 mph 88% 0.00 in
01:41 60.8 °F 57.2 °F 30.14 in SSE 1.0 mph 1.0 mph 88% 0.00 in
01:46 60.9 °F 57.6 °F 30.13 in SSE 1.0 mph 1.0 mph 89% 0.00 in
01:51 60.8 °F 57.2 °F 30.13 in Calm   2.0 mph 88% 0.00 in
01:56 60.8 °F 57.5 °F 30.13 in SE 1.0 mph 2.0 mph 89% 0.00 in
02:01 60.6 °F 57.3 °F 30.13 in SE 1.0 mph 2.0 mph 89% 0.00 in
02:06 60.5 °F 57.2 °F 30.13 in SE 1.0 mph 1.0 mph 89% 0.00 in
02:11 60.4 °F 57.2 °F 30.13 in SE 1.0 mph 1.0 mph 89% 0.00 in
02:17 60.1 °F 56.8 °F 30.13 in SE 1.0 mph 1.0 mph 89% 0.00 in
02:22 60.0 °F 57.1 °F 30.13 in SSE 1.0 mph 1.0 mph 90% 0.00 in
02:27 60.1 °F 57.2 °F 30.13 in Calm   1.0 mph 90% 0.00 in
02:32 60.1 °F 57.5 °F 30.13 in SE 1.0 mph 1.0 mph 91% 0.00 in
02:37 60.3 °F 57.7 °F 30.13 in Calm   1.0 mph 91% 0.00 in
02:42 60.4 °F 57.8 °F 30.13 in SSE 1.0 mph 1.0 mph 91% 0.00 in
02:47 60.2 °F 57.6 °F 30.13 in Calm   1.0 mph 91% 0.00 in
02:52 59.9 °F 57.3 °F 30.13 in SE 1.0 mph 1.0 mph 91% 0.00 in
02:57 59.9 °F 57.3 °F 30.13 in Calm   1.0 mph 91% 0.00 in
03:02 59.9 °F 57.6 °F 30.13 in Calm   1.0 mph 92% 0.00 in
03:07 59.5 °F 56.9 °F 30.13 in SE 1.0 mph 2.0 mph 91% 0.00 in
03:12 59.5 °F 57.2 °F 30.13 in ESE 2.0 mph 2.0 mph 92% 0.00 in
03:17 59.4 °F 57.1 °F 30.13 in ESE 1.0 mph 2.0 mph 92% 0.00 in
03:22 59.4 °F 57.1 °F 30.13 in East 1.0 mph 2.0 mph 92% 0.00 in
03:27 59.1 °F 56.8 °F 30.13 in East 1.0 mph 2.0 mph 92% 0.00 in
03:32 59.1 °F 57.1 °F 30.13 in East 1.0 mph 2.0 mph 93% 0.00 in
03:37 59.1 °F 57.1 °F 30.13 in East 1.0 mph 1.0 mph 93% 0.00 in
03:42 59.0 °F 57.0 °F 30.13 in East 2.0 mph 2.0 mph 93% 0.00 in
03:47 58.6 °F 56.3 °F 30.13 in East 2.0 mph 2.0 mph 92% 0.00 in
03:52 58.6 °F 56.6 °F 30.13 in ESE 1.0 mph 2.0 mph 93% 0.00 in
03:57 58.6 °F 56.6 °F 30.13 in East 1.0 mph 2.0 mph 93% 0.00 in
04:02 58.4 °F 56.4 °F 30.13 in East 1.0 mph 1.0 mph 93% 0.00 in
04:07 58.2 °F 56.2 °F 30.13 in East 1.0 mph 1.0 mph 93% 0.00 in
04:12 57.9 °F 55.9 °F 30.13 in East 1.0 mph 1.0 mph 93% 0.00 in
04:17 57.8 °F 56.1 °F 30.13 in East 1.0 mph 1.0 mph 94% 0.00 in
04:22 57.9 °F 56.2 °F 30.13 in Calm   1.0 mph 94% 0.00 in
04:27 58.1 °F 56.4 °F 30.13 in East 1.0 mph 1.0 mph 94% 0.00 in
04:32 58.1 °F 56.4 °F 30.13 in East 1.0 mph 1.0 mph 94% 0.00 in
04:37 58.1 °F 56.4 °F 30.12 in East 1.0 mph 2.0 mph 94% 0.00 in
04:42 58.1 °F 56.4 °F 30.12 in Calm   1.0 mph 94% 0.00 in
04:47 57.9 °F 56.2 °F 30.12 in East 1.0 mph 1.0 mph 94% 0.00 in
04:52 58.1 °F 56.4 °F 30.13 in East 2.0 mph 2.0 mph 94% 0.00 in
04:57 58.1 °F 56.4 °F 30.12 in Calm   1.0 mph 94% 0.00 in
05:02 58.0 °F 56.3 °F 30.13 in ESE 1.0 mph 1.0 mph 94% 0.00 in
05:07 58.0 °F 56.3 °F 30.13 in ESE 1.0 mph 1.0 mph 94% 0.00 in
05:12 58.2 °F 56.8 °F 30.13 in ESE 1.0 mph 2.0 mph 95% 0.00 in
05:17 58.1 °F 56.4 °F 30.13 in Calm     94% 0.00 in
05:22 58.0 °F 56.3 °F 30.13 in Calm     94% 0.00 in
05:27 58.3 °F 56.9 °F 30.12 in Calm     95% 0.00 in
05:32 58.2 °F 56.8 °F 30.13 in Calm     95% 0.00 in
05:37 58.1 °F 56.7 °F 30.13 in Calm     95% 0.00 in
05:42 58.2 °F 56.8 °F 30.13 in Calm     95% 0.00 in
05:47 58.2 °F 56.8 °F 30.13 in Calm     95% 0.00 in
05:52 58.2 °F 56.8 °F 30.13 in Calm     95% 0.00 in
05:57 58.1 °F 56.7 °F 30.13 in Calm     95% 0.00 in
06:02 57.8 °F 56.4 °F 30.13 in Calm     95% 0.00 in
06:07 57.6 °F 56.2 °F 30.14 in Calm     95% 0.00 in
06:12 57.4 °F 56.0 °F 30.14 in Calm     95% 0.00 in
06:17 57.3 °F 55.9 °F 30.14 in Calm     95% 0.00 in
06:22 57.4 °F 56.0 °F 30.14 in Calm     95% 0.00 in
06:27 57.9 °F 56.5 °F 30.14 in Calm     95% 0.00 in
06:32 58.0 °F 56.6 °F 30.15 in Calm     95% 0.00 in
06:38 58.0 °F 56.6 °F 30.15 in East 1.0 mph 1.0 mph 95% 0.00 in
06:43 57.5 °F 56.1 °F 30.15 in ESE 2.0 mph 3.0 mph 95% 0.00 in
06:48 57.2 °F 55.8 °F 30.15 in ESE 1.0 mph 1.0 mph 95% 0.00 in
06:53 56.5 °F 55.1 °F 30.15 in ESE 1.0 mph 1.0 mph 95% 0.00 in
06:58 56.6 °F 55.2 °F 30.16 in Calm   1.0 mph 95% 0.00 in
07:03 56.5 °F 55.1 °F 30.16 in Calm     95% 0.00 in
07:08 56.2 °F 54.8 °F 30.16 in Calm   1.0 mph 95% 0.00 in
07:13 56.4 °F 55.0 °F 30.16 in Calm     95% 0.00 in
07:18 57.0 °F 55.6 °F 30.16 in ENE 1.0 mph 1.0 mph 95% 0.00 in
07:23 56.8 °F 55.4 °F 30.16 in East 1.0 mph 2.0 mph 95% 0.00 in
07:28 56.8 °F 55.4 °F 30.16 in Calm   1.0 mph 95% 0.00 in
07:33 56.8 °F 55.4 °F 30.16 in Calm     95% 0.00 in
07:38 57.1 °F 55.7 °F 30.16 in Calm     95% 0.00 in
07:43 57.2 °F 55.8 °F 30.17 in East 1.0 mph 1.0 mph 95% 0.00 in
07:48 57.2 °F 55.8 °F 30.17 in ESE 2.0 mph 2.0 mph 95% 0.00 in
07:53 57.2 °F 55.8 °F 30.17 in ESE 3.0 mph 3.0 mph 95% 0.00 in
07:58 56.8 °F 55.4 °F 30.17 in Calm   2.0 mph 95% 0.00 in
08:03 56.4 °F 55.0 °F 30.17 in ESE 1.0 mph 2.0 mph 95% 0.00 in
08:08 56.5 °F 55.1 °F 30.17 in ESE 2.0 mph 3.0 mph 95% 0.00 in
08:13 56.5 °F 55.1 °F 30.17 in ESE 2.0 mph 2.0 mph 95% 0.00 in
08:18 56.4 °F 55.0 °F 30.17 in East 2.0 mph 2.0 mph 95% 0.00 in
08:23 56.5 °F 55.1 °F 30.17 in ESE 2.0 mph 3.0 mph 95% 0.00 in
08:28 56.3 °F 54.9 °F 30.18 in East 2.0 mph 2.0 mph 95% 0.00 in
08:33 56.3 °F 54.9 °F 30.18 in East 1.0 mph 2.0 mph 95% 0.00 in
08:38 56.6 °F 55.2 °F 30.18 in ESE 2.0 mph 2.0 mph 95% 0.00 in
08:43 57.0 °F 55.6 °F 30.18 in East 3.0 mph 4.0 mph 95% 0.00 in
08:48 57.5 °F 56.1 °F 30.18 in ESE 3.0 mph 4.0 mph 95% 0.00 in
08:53 58.0 °F 56.6 °F 30.18 in East 4.0 mph 4.0 mph 95% 0.00 in
08:58 58.4 °F 57.0 °F 30.18 in ESE 3.0 mph 4.0 mph 95% 0.00 in
09:03 59.0 °F 57.6 °F 30.19 in ESE 4.0 mph 4.0 mph 95% 0.00 in
09:08 59.6 °F 58.2 °F 30.19 in ESE 2.0 mph 4.0 mph 95% 0.00 in
09:13 60.1 °F 58.7 °F 30.19 in East 2.0 mph 3.0 mph 95% 0.00 in
09:18 60.6 °F 59.2 °F 30.19 in ESE 4.0 mph 4.0 mph 95% 0.00 in
09:23 61.0 °F 59.6 °F 30.19 in ESE 3.0 mph 5.0 mph 95% 0.00 in
09:28 61.1 °F 59.4 °F 30.20 in ESE 4.0 mph 6.0 mph 94% 0.00 in
09:33 61.7 °F 60.0 °F 30.20 in ESE 4.0 mph 4.0 mph 94% 0.00 in
09:38 62.0 °F 60.3 °F 30.20 in ESE 3.0 mph 4.0 mph 94% 0.00 in
09:43 62.3 °F 60.2 °F 30.20 in ESE 4.0 mph 4.0 mph 93% 0.00 in
09:48 62.9 °F 60.8 °F 30.20 in ESE 3.0 mph 4.0 mph 93% 0.00 in
09:53 63.4 °F 61.3 °F 30.21 in SE 3.0 mph 3.0 mph 93% 0.00 in
09:58 63.7 °F 61.3 °F 30.21 in ESE 3.0 mph 4.0 mph 92% 0.00 in
10:03 63.7 °F 61.3 °F 30.21 in SE 2.0 mph 3.0 mph 92% 0.00 in
10:08 64.4 °F 62.0 °F 30.21 in SE 3.0 mph 4.0 mph 92% 0.00 in
10:13 65.2 °F 62.5 °F 30.21 in SE 4.0 mph 6.0 mph 91% 0.00 in
10:18 65.1 °F 62.1 °F 30.21 in SSE 3.0 mph 4.0 mph 90% 0.00 in
10:23 65.8 °F 63.1 °F 30.21 in SSE 4.0 mph 5.0 mph 91% 0.00 in
10:28 66.6 °F 63.3 °F 30.21 in SE 5.0 mph 6.0 mph 89% 0.00 in
10:33 67.2 °F 63.8 °F 30.21 in SSE 4.0 mph 5.0 mph 89% 0.00 in
10:39 67.7 °F 64.0 °F 30.21 in SE 7.0 mph 7.0 mph 88% 0.00 in
10:44 67.7 °F 63.4 °F 30.21 in SE 4.0 mph 6.0 mph 86% 0.00 in
10:49 67.9 °F 64.2 °F 30.21 in SE 6.0 mph 6.0 mph 88% 0.00 in
10:54 68.4 °F 64.4 °F 30.21 in SSE 4.0 mph 5.0 mph 87% 0.00 in
10:59 69.2 °F 64.5 °F 30.21 in SSW 5.0 mph 5.0 mph 85% 0.00 in
11:04 69.6 °F 64.6 °F 30.21 in SSW 3.0 mph 7.0 mph 84% 0.00 in
11:09 69.8 °F 64.4 °F 30.21 in South 2.0 mph 6.0 mph 83% 0.00 in
11:14 70.0 °F 64.6 °F 30.22 in SSW 3.0 mph 5.0 mph 83% 0.00 in
11:19 70.3 °F 64.6 °F 30.22 in SE 7.0 mph 7.0 mph 82% 0.00 in
11:24 70.4 °F 65.0 °F 30.22 in SSE 4.0 mph 5.0 mph 83% 0.00 in
11:29 70.7 °F 64.6 °F 30.22 in SSE 4.0 mph 5.0 mph 81% 0.00 in
11:34 70.9 °F 64.8 °F 30.22 in SW 4.0 mph 5.0 mph 81% 0.00 in
11:39 71.0 °F 65.2 °F 30.22 in SSE 3.0 mph 7.0 mph 82% 0.00 in
11:44 71.4 °F 65.3 °F 30.21 in SE 3.0 mph 5.0 mph 81% 0.00 in
11:49 71.8 °F 65.3 °F 30.21 in SSW 5.0 mph 5.0 mph 80% 0.00 in
11:54 72.2 °F 65.7 °F 30.21 in South 4.0 mph 5.0 mph 80% 0.00 in
11:59 72.7 °F 65.1 °F 30.21 in SSW 5.0 mph 6.0 mph 77% 0.00 in
12:04 73.3 °F 65.7 °F 30.21 in SSE 2.0 mph 8.0 mph 77% 0.00 in
12:09 73.5 °F 65.5 °F 30.21 in SSW 3.0 mph 7.0 mph 76% 0.00 in
12:14 73.9 °F 65.5 °F 30.21 in SSE 5.0 mph 7.0 mph 75% 0.00 in
12:19 74.6 °F 65.4 °F 30.21 in SW 4.0 mph 5.0 mph 73% 0.00 in
12:24 75.0 °F 66.2 °F 30.20 in SW 4.0 mph 8.0 mph 74% 0.00 in
12:29 75.3 °F 65.3 °F 30.20 in SSW 5.0 mph 8.0 mph 71% 0.00 in
12:34 75.4 °F 64.9 °F 30.20 in SSE 2.0 mph 6.0 mph 70% 0.00 in
12:39 75.6 °F 65.5 °F 30.20 in SW 7.0 mph 8.0 mph 71% 0.00 in
12:45 75.8 °F 64.9 °F 30.20 in SW 2.0 mph 5.0 mph 69% 0.00 in
12:50 76.0 °F 64.7 °F 30.20 in SSE 7.0 mph 9.0 mph 68% 0.00 in
12:55 76.0 °F 65.5 °F 30.20 in South 5.0 mph 9.0 mph 70% 0.00 in
13:00 76.4 °F 65.9 °F 30.20 in SSW 9.0 mph 9.0 mph 70% 0.00 in
13:05 76.6 °F 64.4 °F 30.20 in SW 5.0 mph 7.0 mph 66% 0.00 in
13:10 76.6 °F 65.3 °F 30.19 in WSW 4.0 mph 7.0 mph 68% 0.00 in
13:15 77.4 °F 66.4 °F 30.19 in South 4.0 mph 4.0 mph 69% 0.00 in
13:20 77.9 °F 65.6 °F 30.19 in SW 5.0 mph 10.0 mph 66% 0.00 in
13:25 78.0 °F 64.8 °F 30.19 in SW 8.0 mph 8.0 mph 64% 0.00 in
13:30 77.7 °F 64.6 °F 30.19 in WSW 2.0 mph 7.0 mph 64% 0.00 in
13:35 77.7 °F 65.0 °F 30.19 in SSE 5.0 mph 9.0 mph 65% 0.00 in
13:40 77.1 °F 64.4 °F 30.18 in SSE 6.0 mph 8.0 mph 65% 0.00 in
13:45 77.0 °F 64.8 °F 30.18 in SSW 3.0 mph 8.0 mph 66% 0.00 in
13:46 77.0 °F 64.8 °F 30.18 in SSW 3.0 mph 8.0 mph 66% 0.00 in
13:51 77.3 °F 64.2 °F 30.18 in SSE 2.0 mph 10.0 mph 64% 0.00 in
13:56 77.1 °F 64.9 °F 30.18 in SSE 5.0 mph 7.0 mph 66% 0.00 in
14:01 76.8 °F 64.2 °F 30.17 in South 4.0 mph 6.0 mph 65% 0.00 in
14:06 76.5 °F 64.7 °F 30.17 in SSE 1.0 mph 4.0 mph 67% 0.00 in
14:11 76.6 °F 64.8 °F 30.17 in Calm   1.0 mph 67% 0.00 in
14:16 77.3 °F 65.1 °F 30.17 in WSW 5.0 mph 5.0 mph 66% 0.00 in
14:21 78.1 °F 64.5 °F 30.16 in WSW 3.0 mph 5.0 mph 63% 0.00 in
14:26 78.9 °F 65.7 °F 30.16 in WSW 3.0 mph 4.0 mph 64% 0.00 in
14:31 79.0 °F 63.9 °F 30.15 in SSE 8.0 mph 9.0 mph 60% 0.00 in
14:36 79.4 °F 63.8 °F 30.15 in SE 3.0 mph 7.0 mph 59% 0.00 in
14:41 79.3 °F 64.2 °F 30.15 in South 4.0 mph 9.0 mph 60% 0.00 in
14:46 78.9 °F 62.9 °F 30.15 in SE 7.0 mph 7.0 mph 58% 0.00 in
14:51 78.6 °F 62.6 °F 30.15 in SSE 5.0 mph 6.0 mph 58% 0.00 in
14:56 78.2 °F 64.1 °F 30.15 in SE 5.0 mph 8.0 mph 62% 0.00 in
15:01 78.1 °F 62.6 °F 30.14 in SW 7.0 mph 8.0 mph 59% 0.00 in
15:06 78.5 °F 62.0 °F 30.14 in WSW 7.0 mph 7.0 mph 57% 0.00 in
15:11 78.8 °F 62.8 °F 30.13 in SSW 3.0 mph 10.0 mph 58% 0.00 in
15:16 79.0 °F 63.0 °F 30.13 in SSE 4.0 mph 8.0 mph 58% 0.00 in
15:21 78.8 °F 62.8 °F 30.13 in SW 10.0 mph 10.0 mph 58% 0.00 in
15:26 78.4 °F 63.4 °F 30.13 in SSE 10.0 mph 12.0 mph 60% 0.00 in
15:31 78.7 °F 62.2 °F 30.12 in SE 6.0 mph 9.0 mph 57% 0.00 in
15:36 79.5 °F 63.9 °F 30.12 in SSW 3.0 mph 6.0 mph 59% 0.00 in
15:41 80.2 °F 61.5 °F 30.11 in South 6.0 mph 11.0 mph 53% 0.00 in
15:46 80.6 °F 64.5 °F 30.11 in SSE 10.0 mph 10.0 mph 58% 0.00 in
15:51 80.5 °F 63.9 °F 30.11 in SSE 3.0 mph 16.0 mph 57% 0.00 in
15:56 80.5 °F 63.9 °F 30.11 in SE 10.0 mph 14.0 mph 57% 0.00 in
16:01 80.2 °F 62.6 °F 30.12 in SE 9.0 mph 13.0 mph 55% 0.00 in
16:06 79.7 °F 62.6 °F 30.11 in SE 6.0 mph 11.0 mph 56% 0.00 in
16:12 79.0 °F 63.0 °F 30.11 in SSE 8.0 mph 12.0 mph 58% 0.00 in
16:17 78.4 °F 62.9 °F 30.11 in SSE 6.0 mph 7.0 mph 59% 0.00 in
16:22 78.0 °F 63.5 °F 30.11 in SSE 7.0 mph 10.0 mph 61% 0.00 in
16:27 77.6 °F 63.1 °F 30.11 in SE 8.0 mph 12.0 mph 61% 0.00 in
16:32 77.5 °F 63.5 °F 30.11 in SSW 5.0 mph 8.0 mph 62% 0.00 in
16:37 77.7 °F 63.7 °F 30.11 in SSE 4.0 mph 9.0 mph 62% 0.00 in
16:42 78.7 °F 63.7 °F 30.11 in SSW 7.0 mph 8.0 mph 60% 0.00 in
16:47 79.1 °F 64.0 °F 30.11 in WSW 6.0 mph 9.0 mph 60% 0.00 in
16:52 78.7 °F 63.2 °F 30.11 in SW 6.0 mph 8.0 mph 59% 0.00 in
16:57 78.1 °F 63.1 °F 30.11 in SW 6.0 mph 9.0 mph 60% 0.00 in
17:02 77.6 °F 63.1 °F 30.11 in SW 7.0 mph 8.0 mph 61% 0.00 in
17:07 77.2 °F 63.2 °F 30.12 in West 6.0 mph 6.0 mph 62% 0.00 in
17:12 76.0 °F 64.3 °F 30.12 in SW 2.0 mph 10.0 mph 67% 0.00 in
17:17 74.7 °F 64.7 °F 30.12 in WSW 2.0 mph 5.0 mph 71% 0.09 in
17:22 74.0 °F 64.4 °F 30.12 in SE 1.0 mph 2.0 mph 72% 0.12 in
17:27 73.7 °F 65.7 °F 30.12 in ESE 1.0 mph 1.0 mph 76% 0.11 in
17:32 73.5 °F 65.5 °F 30.12 in East 2.0 mph 2.0 mph 76% 0.10 in
17:37 73.5 °F 66.6 °F 30.12 in ESE 4.0 mph 4.0 mph 79% 0.05 in
17:42 73.3 °F 65.7 °F 30.11 in SE 3.0 mph 4.0 mph 77% 0.04 in
17:47 73.5 °F 65.5 °F 30.11 in SE 5.0 mph 5.0 mph 76% 0.00 in
17:52 73.5 °F 65.5 °F 30.11 in SE 3.0 mph 5.0 mph 76% 0.00 in
17:57 73.6 °F 65.6 °F 30.10 in SE 6.0 mph 7.0 mph 76% 0.00 in
18:02 73.5 °F 65.5 °F 30.10 in SE 4.0 mph 7.0 mph 76% 0.00 in
18:08 73.4 °F 65.4 °F 30.10 in SSE 3.0 mph 5.0 mph 76% 0.00 in
18:13 73.3 °F 64.9 °F 30.10 in SSE 6.0 mph 10.0 mph 75% 0.00 in
18:18 73.2 °F 64.4 °F 30.10 in SSE 7.0 mph 9.0 mph 74% 0.00 in
18:23 73.1 °F 63.9 °F 30.09 in SE 6.0 mph 9.0 mph 73% 0.00 in
18:28 72.8 °F 63.7 °F 30.09 in SE 6.0 mph 10.0 mph 73% 0.00 in
18:33 72.6 °F 63.5 °F 30.09 in SE 7.0 mph 8.0 mph 73% 0.00 in
18:38 72.5 °F 63.4 °F 30.10 in ESE 4.0 mph 6.0 mph 73% 0.00 in
18:43 72.4 °F 63.7 °F 30.10 in ESE 4.0 mph 7.0 mph 74% 0.00 in
18:48 72.3 °F 63.2 °F 30.11 in SSE 2.0 mph 5.0 mph 73% 0.00 in
18:53 72.4 °F 63.3 °F 30.12 in South 2.0 mph 4.0 mph 73% 0.00 in
18:58 72.4 °F 63.3 °F 30.12 in South 3.0 mph 5.0 mph 73% 0.00 in
19:03 72.6 °F 63.5 °F 30.13 in SSW 2.0 mph 5.0 mph 73% 0.00 in
19:08 72.8 °F 63.7 °F 30.13 in SE 2.0 mph 5.0 mph 73% 0.00 in
19:13 73.2 °F 64.4 °F 30.12 in SE 3.0 mph 5.0 mph 74% 0.00 in
19:18 73.5 °F 64.7 °F 30.12 in SE 4.0 mph 5.0 mph 74% 0.00 in
19:23 73.6 °F 64.4 °F 30.12 in SE 2.0 mph 3.0 mph 73% 0.00 in
19:28 73.8 °F 64.6 °F 30.12 in East 3.0 mph 3.0 mph 73% 0.00 in
19:33 73.6 °F 64.0 °F 30.12 in ESE 3.0 mph 5.0 mph 72% 0.00 in
19:38 72.9 °F 64.5 °F 30.12 in ESE 4.0 mph 4.0 mph 75% 0.00 in
19:43 72.6 °F 64.2 °F 30.12 in ESE 2.0 mph 5.0 mph 75% 0.00 in
19:48 72.2 °F 64.2 °F 30.13 in ESE 2.0 mph 2.0 mph 76% 0.00 in
19:53 71.9 °F 63.9 °F 30.13 in SE 1.0 mph 3.0 mph 76% 0.00 in
19:58 71.8 °F 63.8 °F 30.13 in SE 3.0 mph 3.0 mph 76% 0.00 in
20:03 71.6 °F 63.3 °F 30.13 in SE 4.0 mph 4.0 mph 75% 0.00 in
20:08 71.3 °F 63.3 °F 30.13 in SE 3.0 mph 4.0 mph 76% 0.00 in
20:13 70.8 °F 63.2 °F 30.13 in SE 2.0 mph 4.0 mph 77% 0.00 in
20:18 70.4 °F 62.8 °F 30.13 in ESE 2.0 mph 3.0 mph 77% 0.00 in
20:23 70.5 °F 63.0 °F 30.13 in SE 3.0 mph 4.0 mph 77% 0.00 in
20:28 70.3 °F 63.1 °F 30.13 in ESE 3.0 mph 4.0 mph 78% 0.00 in
20:33 69.8 °F 62.6 °F 30.13 in ESE 4.0 mph 5.0 mph 78% 0.00 in
20:39 69.3 °F 62.2 °F 30.13 in SE 3.0 mph 5.0 mph 78% 0.00 in
20:44 69.0 °F 61.9 °F 30.13 in SE 3.0 mph 5.0 mph 78% 0.00 in
20:49 69.0 °F 61.1 °F 30.13 in SE 4.0 mph 4.0 mph 76% 0.00 in
20:54 69.0 °F 60.8 °F 30.13 in ESE 4.0 mph 6.0 mph 75% 0.00 in
20:59 68.9 °F 60.3 °F 30.12 in ESE 3.0 mph 7.0 mph 74% 0.00 in
21:04 68.8 °F 60.2 °F 30.12 in SE 4.0 mph 4.0 mph 74% 0.00 in
21:09 68.7 °F 60.1 °F 30.12 in SE 3.0 mph 4.0 mph 74% 0.00 in
21:14 68.3 °F 59.7 °F 30.12 in SE 3.0 mph 5.0 mph 74% 0.00 in
21:19 68.2 °F 60.0 °F 30.13 in SE 3.0 mph 5.0 mph 75% 0.00 in
21:24 68.1 °F 59.9 °F 30.13 in ESE 3.0 mph 4.0 mph 75% 0.00 in
21:29 68.1 °F 59.9 °F 30.13 in ESE 2.0 mph 3.0 mph 75% 0.00 in
21:34 68.1 °F 59.9 °F 30.13 in ESE 3.0 mph 4.0 mph 75% 0.00 in
21:39 67.9 °F 60.1 °F 30.13 in SE 3.0 mph 3.0 mph 76% 0.00 in
21:44 67.4 °F 60.0 °F 30.13 in SE 2.0 mph 3.0 mph 77% 0.00 in
21:49 66.4 °F 60.0 °F 30.14 in SSE 4.0 mph 4.0 mph 80% 0.00 in
21:54 66.3 °F 60.3 °F 30.14 in SE 6.0 mph 6.0 mph 81% 0.00 in
21:59 66.5 °F 60.8 °F 30.14 in South 6.0 mph 6.0 mph 82% 0.00 in
22:04 66.9 °F 60.9 °F 30.14 in SSE 7.0 mph 7.0 mph 81% 0.00 in
22:09 66.9 °F 60.9 °F 30.14 in SSE 1.0 mph 6.0 mph 81% 0.00 in
22:14 66.6 °F 60.6 °F 30.14 in South 3.0 mph 3.0 mph 81% 0.00 in
22:19 66.3 °F 60.7 °F 30.15 in SSE 3.0 mph 5.0 mph 82% 0.00 in
22:24 66.4 °F 61.1 °F 30.14 in SE 3.0 mph 6.0 mph 83% 0.00 in
22:29 66.3 °F 61.0 °F 30.14 in South 4.0 mph 5.0 mph 83% 0.00 in
22:35 66.0 °F 60.7 °F 30.14 in SSE 5.0 mph 7.0 mph 83% 0.00 in
22:40 66.0 °F 61.0 °F 30.15 in SE 4.0 mph 6.0 mph 84% 0.00 in
22:45 66.0 °F 61.0 °F 30.15 in South 4.0 mph 6.0 mph 84% 0.00 in
22:50 65.8 °F 61.2 °F 30.15 in SSE 4.0 mph 5.0 mph 85% 0.00 in
22:55 65.7 °F 61.1 °F 30.15 in SSE 3.0 mph 6.0 mph 85% 0.00 in
23:00 65.7 °F 61.1 °F 30.15 in SSE 2.0 mph 5.0 mph 85% 0.00 in
23:05 65.8 °F 61.2 °F 30.15 in SSW 2.0 mph 4.0 mph 85% 0.00 in
23:10 65.8 °F 61.5 °F 30.15 in SSE 4.0 mph 4.0 mph 86% 0.00 in
23:15 66.0 °F 61.7 °F 30.15 in South 2.0 mph 5.0 mph 86% 0.00 in
23:20 66.2 °F 61.9 °F 30.15 in SSW 5.0 mph 5.0 mph 86% 0.00 in
23:25 66.5 °F 62.2 °F 30.15 in South 4.0 mph 8.0 mph 86% 0.00 in
23:30 66.6 °F 62.6 °F 30.15 in SSW 3.0 mph 5.0 mph 87% 0.00 in
23:35 66.6 °F 62.6 °F 30.15 in South 4.0 mph 7.0 mph 87% 0.00 in
23:40 66.7 °F 62.7 °F 30.15 in South 2.0 mph 5.0 mph 87% 0.00 in
23:45 66.6 °F 62.6 °F 30.16 in SSW 4.0 mph 6.0 mph 87% 0.00 in
23:46 66.6 °F 62.6 °F 30.16 in South 3.0 mph 5.0 mph 87% 0.00 in
23:51 66.5 °F 62.5 °F 30.16 in SSE 2.0 mph 6.0 mph 87% 0.00 in
23:56 66.1 °F 62.5 °F 30.16 in SSE 5.0 mph 5.0 mph 88% 0.00 in
Compliments of Weather Underground